sensor_id;sensor_type;location;lat;lon;timestamp;pressure;altitude;pressure_sealevel;temperature;humidity
10099;BME280;5089;42.656;23.374;2022-10-16T00:00:46;95451.91;;;13.63;64.30
10099;BME280;5089;42.656;23.374;2022-10-16T00:03:14;95411.78;;;13.32;64.42
10099;BME280;5089;42.656;23.374;2022-10-16T00:05:42;95440.34;;;13.48;64.80
10099;BME280;5089;42.656;23.374;2022-10-16T00:08:10;95460.59;;;13.50;64.78
10099;BME280;5089;42.656;23.374;2022-10-16T00:10:38;95426.38;;;13.31;64.69
10099;BME280;5089;42.656;23.374;2022-10-16T00:13:05;95457.06;;;13.55;64.58
10099;BME280;5089;42.656;23.374;2022-10-16T00:15:35;95457.34;;;13.48;64.59
10099;BME280;5089;42.656;23.374;2022-10-16T00:18:02;95453.31;;;13.46;64.45
10099;BME280;5089;42.656;23.374;2022-10-16T00:20:29;95462.25;;;13.36;64.23
10099;BME280;5089;42.656;23.374;2022-10-16T00:22:58;95395.41;;;12.88;64.39
10099;BME280;5089;42.656;23.374;2022-10-16T00:25:25;95441.25;;;13.23;64.71
10099;BME280;5089;42.656;23.374;2022-10-16T00:27:52;95468.75;;;13.35;64.85
10099;BME280;5089;42.656;23.374;2022-10-16T00:30:19;95472.25;;;13.31;64.65
10099;BME280;5089;42.656;23.374;2022-10-16T00:32:47;95474.16;;;13.25;64.55
10099;BME280;5089;42.656;23.374;2022-10-16T00:35:14;95478.47;;;13.21;64.59
10099;BME280;5089;42.656;23.374;2022-10-16T00:37:41;95491.19;;;13.15;64.31
10099;BME280;5089;42.656;23.374;2022-10-16T00:40:09;95473.38;;;13.04;64.50
10099;BME280;5089;42.656;23.374;2022-10-16T00:42:37;95493.06;;;13.05;64.57
10099;BME280;5089;42.656;23.374;2022-10-16T00:45:04;95454.25;;;12.81;64.49
10099;BME280;5089;42.656;23.374;2022-10-16T00:47:33;95442.66;;;12.75;64.57
10099;BME280;5089;42.656;23.374;2022-10-16T00:50:07;95482.28;;;12.90;65.13
10099;BME280;5089;42.656;23.374;2022-10-16T00:52:34;95466.38;;;12.78;64.99
10099;BME280;5089;42.656;23.374;2022-10-16T00:55:03;95458.28;;;12.68;65.23
10099;BME280;5089;42.656;23.374;2022-10-16T00:57:31;95462.63;;;12.69;65.12
10099;BME280;5089;42.656;23.374;2022-10-16T00:59:58;95482.53;;;12.73;65.10
10099;BME280;5089;42.656;23.374;2022-10-16T01:02:25;95465.03;;;12.55;65.18
10099;BME280;5089;42.656;23.374;2022-10-16T01:04:53;95495.50;;;12.71;65.55
10099;BME280;5089;42.656;23.374;2022-10-16T01:07:33;95493.34;;;12.63;66.35
10099;BME280;5089;42.656;23.374;2022-10-16T01:10:09;95489.81;;;12.47;66.94
10099;BME280;5089;42.656;23.374;2022-10-16T01:12:41;95476.06;;;12.34;67.16
10099;BME280;5089;42.656;23.374;2022-10-16T01:15:17;95462.84;;;12.32;67.21
10099;BME280;5089;42.656;23.374;2022-10-16T01:17:53;95487.13;;;12.32;67.64
10099;BME280;5089;42.656;23.374;2022-10-16T01:20:27;95488.19;;;12.46;67.85
10099;BME280;5089;42.656;23.374;2022-10-16T01:23:09;95490.09;;;12.46;67.97
10099;BME280;5089;42.656;23.374;2022-10-16T01:28:39;95482.50;;;12.28;68.56
10099;BME280;5089;42.656;23.374;2022-10-16T01:31:09;95473.31;;;12.14;69.51
10099;BME280;5089;42.656;23.374;2022-10-16T01:33:41;95474.91;;;11.99;70.53
10099;BME280;5089;42.656;23.374;2022-10-16T01:36:12;95469.25;;;12.01;70.50
10099;BME280;5089;42.656;23.374;2022-10-16T01:38:41;95473.31;;;12.08;69.33
10099;BME280;5089;42.656;23.374;2022-10-16T01:41:14;95437.44;;;11.93;68.89
10099;BME280;5089;42.656;23.374;2022-10-16T01:43:46;95478.16;;;12.06;68.65
10099;BME280;5089;42.656;23.374;2022-10-16T01:46:15;95477.63;;;12.09;68.22
10099;BME280;5089;42.656;23.374;2022-10-16T01:48:44;95471.41;;;11.99;67.69
10099;BME280;5089;42.656;23.374;2022-10-16T01:51:13;95491.63;;;12.01;67.29
10099;BME280;5089;42.656;23.374;2022-10-16T01:53:45;95485.41;;;12.01;67.31
10099;BME280;5089;42.656;23.374;2022-10-16T01:56:15;95481.91;;;11.90;67.52
10099;BME280;5089;42.656;23.374;2022-10-16T01:58:47;95479.22;;;12.00;67.00
10099;BME280;5089;42.656;23.374;2022-10-16T02:01:18;95480.88;;;12.12;66.49
10099;BME280;5089;42.656;23.374;2022-10-16T02:03:46;95459.28;;;11.96;66.13
10099;BME280;5089;42.656;23.374;2022-10-16T02:06:16;95492.19;;;12.19;65.73
10099;BME280;5089;42.656;23.374;2022-10-16T02:08:43;95443.09;;;11.91;65.33
10099;BME280;5089;42.656;23.374;2022-10-16T02:11:10;95492.19;;;12.19;65.16
10099;BME280;5089;42.656;23.374;2022-10-16T02:13:39;95490.59;;;12.23;64.77
10099;BME280;5089;42.656;23.374;2022-10-16T02:16:12;95495.44;;;12.21;64.67
10099;BME280;5089;42.656;23.374;2022-10-16T02:18:39;95505.16;;;12.27;64.81
10099;BME280;5089;42.656;23.374;2022-10-16T02:21:13;95509.47;;;12.28;64.79
10099;BME280;5089;42.656;23.374;2022-10-16T02:23:45;95500.56;;;12.27;64.45
10099;BME280;5089;42.656;23.374;2022-10-16T02:26:25;95510.00;;;12.25;64.84
10099;BME280;5089;42.656;23.374;2022-10-16T02:28:57;95511.09;;;12.24;64.58
10099;BME280;5089;42.656;23.374;2022-10-16T02:31:31;95512.16;;;12.18;65.26
10099;BME280;5089;42.656;23.374;2022-10-16T02:34:01;95508.38;;;12.19;65.04
10099;BME280;5089;42.656;23.374;2022-10-16T02:36:31;95516.97;;;12.10;64.93
10099;BME280;5089;42.656;23.374;2022-10-16T02:38:59;95519.34;;;11.97;65.66
10099;BME280;5089;42.656;23.374;2022-10-16T02:41:27;95519.63;;;11.95;65.61
10099;BME280;5089;42.656;23.374;2022-10-16T02:43:54;95517.97;;;11.94;66.04
10099;BME280;5089;42.656;23.374;2022-10-16T02:46:21;95521.72;;;11.88;66.13
10099;BME280;5089;42.656;23.374;2022-10-16T02:48:49;95523.66;;;11.93;65.99
10099;BME280;5089;42.656;23.374;2022-10-16T02:51:16;95504.22;;;11.81;65.38
10099;BME280;5089;42.656;23.374;2022-10-16T02:53:44;95525.53;;;11.92;65.30
10099;BME280;5089;42.656;23.374;2022-10-16T02:56:11;95518.50;;;11.86;65.26
10099;BME280;5089;42.656;23.374;2022-10-16T02:58:37;95526.88;;;11.90;65.04
10099;BME280;5089;42.656;23.374;2022-10-16T03:01:04;95537.88;;;11.83;65.37
10099;BME280;5089;42.656;23.374;2022-10-16T03:03:31;95531.97;;;11.81;65.61
10099;BME280;5089;42.656;23.374;2022-10-16T03:05:59;95502.19;;;11.56;65.53
10099;BME280;5089;42.656;23.374;2022-10-16T03:08:26;95518.03;;;11.47;65.78
10099;BME280;5089;42.656;23.374;2022-10-16T03:10:53;95509.66;;;11.44;66.02
10099;BME280;5089;42.656;23.374;2022-10-16T03:13:19;95528.56;;;11.54;66.62
10099;BME280;5089;42.656;23.374;2022-10-16T03:15:47;95533.97;;;11.59;66.65
10099;BME280;5089;42.656;23.374;2022-10-16T03:18:14;95541.78;;;11.61;66.59
10099;BME280;5089;42.656;23.374;2022-10-16T03:20:42;95506.78;;;11.14;68.01
10099;BME280;5089;42.656;23.374;2022-10-16T03:23:10;95555.41;;;11.44;67.87
10099;BME280;5089;42.656;23.374;2022-10-16T03:25:37;95549.97;;;11.34;68.54
10099;BME280;5089;42.656;23.374;2022-10-16T03:28:04;95551.06;;;11.38;68.44
10099;BME280;5089;42.656;23.374;2022-10-16T03:30:30;95551.06;;;11.38;68.66
10099;BME280;5089;42.656;23.374;2022-10-16T03:32:57;95555.63;;;11.32;69.05
10099;BME280;5089;42.656;23.374;2022-10-16T03:35:24;95528.00;;;11.10;69.29
10099;BME280;5089;42.656;23.374;2022-10-16T03:37:51;95550.94;;;11.18;69.81
10099;BME280;5089;42.656;23.374;2022-10-16T03:40:20;95515.78;;;10.92;70.10
10099;BME280;5089;42.656;23.374;2022-10-16T03:42:47;95552.44;;;11.03;70.06
10099;BME280;5089;42.656;23.374;2022-10-16T03:45:14;95542.03;;;10.80;71.12
10099;BME280;5089;42.656;23.374;2022-10-16T03:47:41;95539.88;;;10.77;71.42
10099;BME280;5089;42.656;23.374;2022-10-16T03:50:08;95538.84;;;10.83;70.78
10099;BME280;5089;42.656;23.374;2022-10-16T03:52:35;95553.75;;;10.96;70.66
10099;BME280;5089;42.656;23.374;2022-10-16T03:55:02;95544.38;;;11.03;70.59
10099;BME280;5089;42.656;23.374;2022-10-16T03:57:30;95543.09;;;11.11;70.10
10099;BME280;5089;42.656;23.374;2022-10-16T03:59:57;95542.31;;;11.16;69.37
10099;BME280;5089;42.656;23.374;2022-10-16T04:02:24;95541.78;;;11.19;69.04
10099;BME280;5089;42.656;23.374;2022-10-16T04:04:51;95523.88;;;10.97;69.27
10099;BME280;5089;42.656;23.374;2022-10-16T04:07:18;95515.88;;;11.02;69.17
10099;BME280;5089;42.656;23.374;2022-10-16T04:09:44;95549.31;;;11.17;69.31
10099;BME280;5089;42.656;23.374;2022-10-16T04:12:11;95539.66;;;11.21;69.29
10099;BME280;5089;42.656;23.374;2022-10-16T04:14:39;95541.03;;;11.23;68.79
10099;BME280;5089;42.656;23.374;2022-10-16T04:17:06;95537.81;;;11.26;68.69
10099;BME280;5089;42.656;23.374;2022-10-16T04:19:32;95549.41;;;11.27;68.86
10099;BME280;5089;42.656;23.374;2022-10-16T04:21:59;95539.91;;;11.19;68.69
10099;BME280;5089;42.656;23.374;2022-10-16T04:24:26;95546.13;;;11.25;68.70
10099;BME280;5089;42.656;23.374;2022-10-16T04:26:53;95482.09;;;10.85;68.82
10099;BME280;5089;42.656;23.374;2022-10-16T04:29:19;95548.31;;;11.28;68.44
10099;BME280;5089;42.656;23.374;2022-10-16T04:31:47;95542.91;;;11.23;67.87
10099;BME280;5089;42.656;23.374;2022-10-16T04:34:14;95543.72;;;11.23;67.89
10099;BME280;5089;42.656;23.374;2022-10-16T04:36:41;95563.41;;;11.29;67.88
10099;BME280;5089;42.656;23.374;2022-10-16T04:39:08;95559.66;;;11.30;67.28
10099;BME280;5089;42.656;23.374;2022-10-16T04:41:34;95560.94;;;11.27;67.25
10099;BME280;5089;42.656;23.374;2022-10-16T04:44:01;95566.31;;;11.27;67.44
10099;BME280;5089;42.656;23.374;2022-10-16T04:46:28;95575.72;;;11.25;67.57
10099;BME280;5089;42.656;23.374;2022-10-16T04:48:56;95567.16;;;11.28;67.13
10099;BME280;5089;42.656;23.374;2022-10-16T04:51:23;95566.31;;;11.22;66.85
10099;BME280;5089;42.656;23.374;2022-10-16T04:53:51;95569.28;;;11.21;67.25
10099;BME280;5089;42.656;23.374;2022-10-16T04:56:17;95574.16;;;11.29;67.35
10099;BME280;5089;42.656;23.374;2022-10-16T04:58:44;95574.16;;;11.29;67.27
10099;BME280;5089;42.656;23.374;2022-10-16T05:01:11;95570.31;;;11.20;66.79
10099;BME280;5089;42.656;23.374;2022-10-16T05:03:38;95588.16;;;11.31;67.00
10099;BME280;5089;42.656;23.374;2022-10-16T05:06:06;95590.84;;;11.31;66.70
10099;BME280;5089;42.656;23.374;2022-10-16T05:08:33;95591.94;;;11.30;66.61
10099;BME280;5089;42.656;23.374;2022-10-16T05:11:00;95571.28;;;11.40;75.04
10099;BME280;5089;42.656;23.374;2022-10-16T05:13:27;95606.38;;;11.55;68.60
10099;BME280;5089;42.656;23.374;2022-10-16T05:15:54;95576.41;;;11.42;66.88
10099;BME280;5089;42.656;23.374;2022-10-16T05:18:20;95602.56;;;11.51;66.84
10099;BME280;5089;42.656;23.374;2022-10-16T05:20:47;95600.69;;;11.52;66.90
10099;BME280;5089;42.656;23.374;2022-10-16T05:23:15;95600.13;;;11.45;67.16
10099;BME280;5089;42.656;23.374;2022-10-16T05:25:42;95613.09;;;11.53;67.07
10099;BME280;5089;42.656;23.374;2022-10-16T05:28:41;95611.75;;;11.97;64.89
10099;BME280;5089;42.656;23.374;2022-10-16T05:31:09;95601.16;;;12.38;63.27
10099;BME280;5089;42.656;23.374;2022-10-16T05:33:36;95602.16;;;12.17;64.37
10099;BME280;5089;42.656;23.374;2022-10-16T05:36:05;95610.16;;;12.01;65.23
10099;BME280;5089;42.656;23.374;2022-10-16T05:38:32;95613.06;;;11.90;65.37
10099;BME280;5089;42.656;23.374;2022-10-16T05:40:59;95580.88;;;11.68;65.68
10099;BME280;5089;42.656;23.374;2022-10-16T05:43:27;95614.38;;;11.82;66.28
10099;BME280;5089;42.656;23.374;2022-10-16T05:45:56;95612.19;;;11.79;66.16
10099;BME280;5089;42.656;23.374;2022-10-16T05:48:24;95612.16;;;11.74;66.43
10099;BME280;5089;42.656;23.374;2022-10-16T05:50:56;95602.41;;;11.68;66.14
10099;BME280;5089;42.656;23.374;2022-10-16T05:53:24;95621.78;;;11.65;66.84
10099;BME280;5089;42.656;23.374;2022-10-16T05:55:52;95628.75;;;11.61;66.88
10099;BME280;5089;42.656;23.374;2022-10-16T05:58:19;95629.31;;;11.63;67.08
10099;BME280;5089;42.656;23.374;2022-10-16T06:00:53;95626.19;;;11.76;70.63
10099;BME280;5089;42.656;23.374;2022-10-16T06:03:21;95633.97;;;12.20;68.69
10099;BME280;5089;42.656;23.374;2022-10-16T06:05:48;95603.06;;;12.47;71.43
10099;BME280;5089;42.656;23.374;2022-10-16T06:08:14;95630.44;;;13.06;65.90
10099;BME280;5089;42.656;23.374;2022-10-16T06:10:42;95596.94;;;13.02;62.59
10099;BME280;5089;42.656;23.374;2022-10-16T06:13:09;95652.06;;;13.37;61.86
10099;BME280;5089;42.656;23.374;2022-10-16T06:15:35;95636.94;;;13.46;61.74
10099;BME280;5089;42.656;23.374;2022-10-16T06:18:04;95642.91;;;13.53;61.24
10099;BME280;5089;42.656;23.374;2022-10-16T06:20:32;95618.34;;;13.29;60.45
10099;BME280;5089;42.656;23.374;2022-10-16T06:22:59;95618.88;;;13.31;60.88
10099;BME280;5089;42.656;23.374;2022-10-16T06:25:25;95648.81;;;13.60;60.78
10099;BME280;5089;42.656;23.374;2022-10-16T06:27:52;95627.50;;;13.43;60.65
10099;BME280;5089;42.656;23.374;2022-10-16T06:30:19;95662.31;;;13.70;60.35
10099;BME280;5089;42.656;23.374;2022-10-16T06:32:46;95656.38;;;13.78;60.54
10099;BME280;5089;42.656;23.374;2022-10-16T06:35:13;95658.81;;;13.74;60.24
10099;BME280;5089;42.656;23.374;2022-10-16T06:37:41;95659.63;;;13.80;60.69
10099;BME280;5089;42.656;23.374;2022-10-16T06:40:08;95659.06;;;13.88;60.30
10099;BME280;5089;42.656;23.374;2022-10-16T06:42:35;95668.75;;;13.99;59.20
10099;BME280;5089;42.656;23.374;2022-10-16T06:45:02;95614.25;;;13.67;60.02
10099;BME280;5089;42.656;23.374;2022-10-16T06:47:28;95677.94;;;14.08;60.21
10099;BME280;5089;42.656;23.374;2022-10-16T06:49:55;95649.28;;;14.02;59.55
10099;BME280;5089;42.656;23.374;2022-10-16T06:52:22;95670.06;;;14.22;59.39
10099;BME280;5089;42.656;23.374;2022-10-16T06:54:50;95682.75;;;14.32;59.40
10099;BME280;5089;42.656;23.374;2022-10-16T06:57:17;95684.38;;;14.43;59.13
10099;BME280;5089;42.656;23.374;2022-10-16T06:59:44;95678.94;;;14.53;58.76
10099;BME280;5089;42.656;23.374;2022-10-16T07:02:11;95683.44;;;14.72;58.52
10099;BME280;5089;42.656;23.374;2022-10-16T07:04:37;95680.63;;;14.98;57.45
10099;BME280;5089;42.656;23.374;2022-10-16T07:07:04;95684.53;;;15.20;57.23
10099;BME280;5089;42.656;23.374;2022-10-16T07:09:31;95684.66;;;15.44;56.43
10099;BME280;5089;42.656;23.374;2022-10-16T07:11:59;95687.75;;;15.66;55.73
10099;BME280;5089;42.656;23.374;2022-10-16T07:14:26;95688.50;;;15.77;54.93
10099;BME280;5089;42.656;23.374;2022-10-16T07:16:53;95686.56;;;15.82;54.36
10099;BME280;5089;42.656;23.374;2022-10-16T07:19:20;95685.13;;;15.90;54.87
10099;BME280;5089;42.656;23.374;2022-10-16T07:21:47;95693.28;;;16.14;61.60
10099;BME280;5089;42.656;23.374;2022-10-16T07:24:15;95687.44;;;16.30;53.80
10099;BME280;5089;42.656;23.374;2022-10-16T07:26:44;95698.41;;;16.44;52.61
10099;BME280;5089;42.656;23.374;2022-10-16T07:29:14;95697.16;;;16.36;52.48
10099;BME280;5089;42.656;23.374;2022-10-16T07:31:41;95692.53;;;16.37;71.36
10099;BME280;5089;42.656;23.374;2022-10-16T07:34:09;95698.38;;;16.73;70.97
10099;BME280;5089;42.656;23.374;2022-10-16T07:36:36;95681.63;;;17.08;67.02
10099;BME280;5089;42.656;23.374;2022-10-16T07:39:03;95664.13;;;17.19;54.41
10099;BME280;5089;42.656;23.374;2022-10-16T07:41:30;95695.63;;;17.58;53.20
10099;BME280;5089;42.656;23.374;2022-10-16T07:43:58;95693.25;;;17.70;57.93
10099;BME280;5089;42.656;23.374;2022-10-16T07:46:27;95693.69;;;17.77;49.46
10099;BME280;5089;42.656;23.374;2022-10-16T07:48:54;95685.97;;;17.65;48.67
10099;BME280;5089;42.656;23.374;2022-10-16T07:51:23;95692.66;;;17.73;48.64
10099;BME280;5089;42.656;23.374;2022-10-16T07:53:52;95698.78;;;17.65;48.73
10099;BME280;5089;42.656;23.374;2022-10-16T07:56:20;95697.94;;;17.45;48.64
10099;BME280;5089;42.656;23.374;2022-10-16T07:58:47;95702.66;;;17.21;61.53
10099;BME280;5089;42.656;23.374;2022-10-16T08:01:16;95707.13;;;17.31;51.38
10099;BME280;5089;42.656;23.374;2022-10-16T08:03:46;95704.22;;;17.46;58.19
10099;BME280;5089;42.656;23.374;2022-10-16T08:06:13;95673.72;;;17.68;61.79
10099;BME280;5089;42.656;23.374;2022-10-16T08:08:40;95671.16;;;17.90;49.69
10099;BME280;5089;42.656;23.374;2022-10-16T08:11:07;95665.88;;;18.12;57.74
10099;BME280;5089;42.656;23.374;2022-10-16T08:13:34;95695.00;;;18.71;60.98
10099;BME280;5089;42.656;23.374;2022-10-16T08:16:02;95662.22;;;18.90;57.94
10099;BME280;5089;42.656;23.374;2022-10-16T08:18:33;95698.06;;;19.46;62.58
10099;BME280;5089;42.656;23.374;2022-10-16T08:21:01;95686.44;;;19.77;52.51
10099;BME280;5089;42.656;23.374;2022-10-16T08:23:29;95669.03;;;19.86;52.98
10099;BME280;5089;42.656;23.374;2022-10-16T08:25:56;95693.16;;;20.15;43.75
10099;BME280;5089;42.656;23.374;2022-10-16T08:28:28;95694.75;;;20.16;43.84
10099;BME280;5089;42.656;23.374;2022-10-16T08:30:54;95691.78;;;20.26;46.93
10099;BME280;5089;42.656;23.374;2022-10-16T08:33:22;95624.69;;;20.03;42.53
10099;BME280;5089;42.656;23.374;2022-10-16T08:35:52;95690.91;;;20.39;48.97
10099;BME280;5089;42.656;23.374;2022-10-16T08:38:21;95680.16;;;20.43;46.42
10099;BME280;5089;42.656;23.374;2022-10-16T08:40:48;95690.56;;;20.71;42.21
10099;BME280;5089;42.656;23.374;2022-10-16T08:43:24;95661.00;;;20.73;45.61
10099;BME280;5089;42.656;23.374;2022-10-16T08:46:07;95698.28;;;21.09;40.61
10099;BME280;5089;42.656;23.374;2022-10-16T08:48:45;95683.44;;;21.01;43.63
10099;BME280;5089;42.656;23.374;2022-10-16T08:51:19;95687.19;;;21.14;45.70
10099;BME280;5089;42.656;23.374;2022-10-16T08:53:52;95680.63;;;21.23;45.89
10099;BME280;5089;42.656;23.374;2022-10-16T08:56:19;95683.53;;;21.61;45.22
10099;BME280;5089;42.656;23.374;2022-10-16T08:58:47;95705.94;;;21.80;36.52
10099;BME280;5089;42.656;23.374;2022-10-16T09:01:15;95689.19;;;21.56;35.90
10099;BME280;5089;42.656;23.374;2022-10-16T09:03:56;95701.25;;;21.64;37.16
10099;BME280;5089;42.656;23.374;2022-10-16T09:06:31;95682.75;;;21.69;39.78
10099;BME280;5089;42.656;23.374;2022-10-16T09:09:24;95698.22;;;22.00;37.00
10099;BME280;5089;42.656;23.374;2022-10-16T09:11:59;95671.31;;;21.84;38.54
10099;BME280;5089;42.656;23.374;2022-10-16T09:14:45;95696.63;;;21.99;36.10
10099;BME280;5089;42.656;23.374;2022-10-16T09:17:24;95697.44;;;21.99;37.94
10099;BME280;5089;42.656;23.374;2022-10-16T09:20:00;95700.47;;;22.15;34.94
10099;BME280;5089;42.656;23.374;2022-10-16T09:22:31;95692.06;;;22.20;34.18
10099;BME280;5089;42.656;23.374;2022-10-16T09:25:10;95696.59;;;22.16;34.21
10099;BME280;5089;42.656;23.374;2022-10-16T09:27:37;95685.19;;;22.05;35.45
10099;BME280;5089;42.656;23.374;2022-10-16T09:30:11;95691.09;;;22.16;39.92
10099;BME280;5089;42.656;23.374;2022-10-16T09:32:39;95691.13;;;21.99;35.72
10099;BME280;5089;42.656;23.374;2022-10-16T09:35:11;95692.59;;;22.05;39.43
10099;BME280;5089;42.656;23.374;2022-10-16T09:37:41;95688.38;;;22.16;37.31
10099;BME280;5089;42.656;23.374;2022-10-16T09:40:23;95677.75;;;22.14;39.26
10099;BME280;5089;42.656;23.374;2022-10-16T09:42:51;95684.00;;;22.32;38.00
10099;BME280;5089;42.656;23.374;2022-10-16T09:45:23;95680.13;;;22.33;35.89
10099;BME280;5089;42.656;23.374;2022-10-16T09:47:50;95683.66;;;22.42;33.99
10099;BME280;5089;42.656;23.374;2022-10-16T09:50:23;95633.72;;;22.28;37.20
10099;BME280;5089;42.656;23.374;2022-10-16T09:53:02;95673.75;;;22.75;33.44
10099;BME280;5089;42.656;23.374;2022-10-16T09:55:30;95675.94;;;22.90;35.56
10099;BME280;5089;42.656;23.374;2022-10-16T09:57:57;95671.66;;;23.02;35.04
10099;BME280;5089;42.656;23.374;2022-10-16T10:00:24;95663.75;;;23.09;36.24
10099;BME280;5089;42.656;23.374;2022-10-16T10:02:52;95675.38;;;23.06;32.17
10099;BME280;5089;42.656;23.374;2022-10-16T10:05:22;95667.31;;;23.01;35.75
10099;BME280;5089;42.656;23.374;2022-10-16T10:07:55;95666.47;;;23.09;33.69
10099;BME280;5089;42.656;23.374;2022-10-16T10:10:25;95669.31;;;23.21;34.36
10099;BME280;5089;42.656;23.374;2022-10-16T10:12:54;95666.56;;;23.21;34.02
10099;BME280;5089;42.656;23.374;2022-10-16T10:15:23;95657.47;;;23.29;33.15
10099;BME280;5089;42.656;23.374;2022-10-16T10:17:53;95658.94;;;23.26;33.87
10099;BME280;5089;42.656;23.374;2022-10-16T10:20:26;95659.34;;;23.37;33.72
10099;BME280;5089;42.656;23.374;2022-10-16T10:22:54;95666.72;;;23.45;33.44
10099;BME280;5089;42.656;23.374;2022-10-16T10:25:44;95659.72;;;23.56;33.23
10099;BME280;5089;42.656;23.374;2022-10-16T10:28:50;95653.63;;;23.71;33.55
10099;BME280;5089;42.656;23.374;2022-10-16T10:31:26;95645.91;;;23.85;33.78
10099;BME280;5089;42.656;23.374;2022-10-16T10:33:58;95641.41;;;24.01;33.22
10099;BME280;5089;42.656;23.374;2022-10-16T10:36:33;95650.63;;;24.18;33.01
10099;BME280;5089;42.656;23.374;2022-10-16T10:39:05;95643.53;;;24.17;32.77
10099;BME280;5089;42.656;23.374;2022-10-16T10:41:59;95645.81;;;24.15;32.76
10099;BME280;5089;42.656;23.374;2022-10-16T10:44:39;95625.44;;;24.16;31.47
10099;BME280;5089;42.656;23.374;2022-10-16T10:47:17;95640.28;;;24.35;30.73
10099;BME280;5089;42.656;23.374;2022-10-16T10:49:57;95601.19;;;24.18;29.45
10099;BME280;5089;42.656;23.374;2022-10-16T10:52:37;95617.50;;;24.35;30.47
10099;BME280;5089;42.656;23.374;2022-10-16T10:55:17;95634.72;;;24.56;30.85
10099;BME280;5089;42.656;23.374;2022-10-16T10:57:56;95625.19;;;24.53;28.00
10099;BME280;5089;42.656;23.374;2022-10-16T11:00:40;95628.28;;;24.52;29.41
10099;BME280;5089;42.656;23.374;2022-10-16T11:03:17;95625.53;;;24.52;29.53
10099;BME280;5089;42.656;23.374;2022-10-16T11:05:54;95610.78;;;24.56;28.63
10099;BME280;5089;42.656;23.374;2022-10-16T11:08:28;95609.03;;;24.64;28.35
10099;BME280;5089;42.656;23.374;2022-10-16T11:11:00;95586.59;;;24.50;26.54
10099;BME280;5089;42.656;23.374;2022-10-16T11:13:33;95612.91;;;24.51;27.08
10099;BME280;5089;42.656;23.374;2022-10-16T11:16:13;95614.75;;;24.35;26.44
10099;BME280;5089;42.656;23.374;2022-10-16T11:18:47;95594.56;;;24.31;28.27
10099;BME280;5089;42.656;23.374;2022-10-16T11:21:18;95606.69;;;24.18;26.28
10099;BME280;5089;42.656;23.374;2022-10-16T11:23:53;95599.50;;;23.92;28.45
10099;BME280;5089;42.656;23.374;2022-10-16T11:26:25;95580.38;;;23.84;28.06
10099;BME280;5089;42.656;23.374;2022-10-16T11:28:54;95596.88;;;23.96;29.34
10099;BME280;5089;42.656;23.374;2022-10-16T11:31:28;95582.88;;;23.89;29.21
10099;BME280;5089;42.656;23.374;2022-10-16T11:34:03;95597.66;;;23.96;28.60
10099;BME280;5089;42.656;23.374;2022-10-16T11:36:36;95596.28;;;23.90;28.32
10099;BME280;5089;42.656;23.374;2022-10-16T11:39:11;95569.03;;;23.53;27.17
10099;BME280;5089;42.656;23.374;2022-10-16T11:41:48;95600.69;;;23.50;27.81
10099;BME280;5089;42.656;23.374;2022-10-16T11:44:34;95596.84;;;23.22;27.34
10099;BME280;5089;42.656;23.374;2022-10-16T11:47:10;95595.72;;;23.23;29.18
10099;BME280;5089;42.656;23.374;2022-10-16T11:49:40;95607.81;;;23.22;28.74
10099;BME280;5089;42.656;23.374;2022-10-16T11:52:14;95587.22;;;23.16;29.82
10099;BME280;5089;42.656;23.374;2022-10-16T11:54:46;95598.31;;;23.19;29.55
10099;BME280;5089;42.656;23.374;2022-10-16T11:57:18;95599.72;;;23.05;28.92
10099;BME280;5089;42.656;23.374;2022-10-16T11:59:48;95602.56;;;22.87;28.73
10099;BME280;5089;42.656;23.374;2022-10-16T12:02:31;95592.06;;;22.89;30.51
10099;BME280;5089;42.656;23.374;2022-10-16T12:05:09;95597.34;;;22.94;29.70
10099;BME280;5089;42.656;23.374;2022-10-16T12:07:43;95607.00;;;23.01;29.46
10099;BME280;5089;42.656;23.374;2022-10-16T12:10:20;95608.81;;;22.97;28.73
10099;BME280;5089;42.656;23.374;2022-10-16T12:12:47;95599.09;;;22.99;29.56
10099;BME280;5089;42.656;23.374;2022-10-16T12:15:23;95590.06;;;22.99;29.85
10099;BME280;5089;42.656;23.374;2022-10-16T12:17:52;95601.03;;;22.99;30.36
10099;BME280;5089;42.656;23.374;2022-10-16T12:20:26;95598.50;;;22.93;29.14
10099;BME280;5089;42.656;23.374;2022-10-16T12:22:57;95596.06;;;22.92;29.92
10099;BME280;5089;42.656;23.374;2022-10-16T12:25:26;95583.84;;;22.89;30.81
10099;BME280;5089;42.656;23.374;2022-10-16T12:27:58;95596.69;;;22.98;29.33
10099;BME280;5089;42.656;23.374;2022-10-16T12:30:27;95598.97;;;22.95;29.29
10099;BME280;5089;42.656;23.374;2022-10-16T12:32:57;95590.00;;;22.86;29.31
10099;BME280;5089;42.656;23.374;2022-10-16T12:35:27;95574.31;;;22.66;29.03
10099;BME280;5089;42.656;23.374;2022-10-16T12:38:08;95597.97;;;22.71;29.57
10099;BME280;5089;42.656;23.374;2022-10-16T12:40:42;95592.06;;;22.52;30.02
10099;BME280;5089;42.656;23.374;2022-10-16T12:43:25;95597.31;;;22.36;30.01
10099;BME280;5089;42.656;23.374;2022-10-16T12:46:04;95581.22;;;22.26;31.18
10099;BME280;5089;42.656;23.374;2022-10-16T12:48:32;95582.22;;;22.13;31.03
10099;BME280;5089;42.656;23.374;2022-10-16T12:51:10;95602.81;;;22.19;31.70
10099;BME280;5089;42.656;23.374;2022-10-16T12:53:37;95592.41;;;22.04;31.39
10099;BME280;5089;42.656;23.374;2022-10-16T12:56:19;95599.16;;;22.06;32.28
10099;BME280;5089;42.656;23.374;2022-10-16T12:58:59;95604.00;;;22.01;32.12
10099;BME280;5089;42.656;23.374;2022-10-16T13:01:39;95612.41;;;21.96;31.88
10099;BME280;5089;42.656;23.374;2022-10-16T13:04:36;95605.81;;;21.88;31.93
10099;BME280;5089;42.656;23.374;2022-10-16T13:07:20;95616.28;;;21.77;32.26
10099;BME280;5089;42.656;23.374;2022-10-16T13:10:01;95611.63;;;21.69;32.12
10099;BME280;5089;42.656;23.374;2022-10-16T13:12:47;95613.06;;;21.58;32.06
10099;BME280;5089;42.656;23.374;2022-10-16T13:15:27;95612.91;;;21.46;32.03
10099;BME280;5089;42.656;23.374;2022-10-16T13:18:06;95615.47;;;21.34;32.47
10099;BME280;5089;42.656;23.374;2022-10-16T13:20:51;95620.63;;;21.27;32.18